createdAt,value
2018-01-13T00:01:20.801Z,1028.7
2018-01-13T00:06:20.766Z,1028.7
2018-01-13T00:11:20.796Z,1028.7
2018-01-13T00:16:20.823Z,1028.8
2018-01-13T00:21:20.821Z,1028.8
2018-01-13T00:26:22.097Z,1028.7
2018-01-13T00:31:20.696Z,1028.8
2018-01-13T00:36:20.830Z,1028.7
2018-01-13T00:41:20.748Z,1028.7
2018-01-13T00:46:20.856Z,1028.8
2018-01-13T00:51:20.925Z,1028.7
2018-01-13T00:56:21.025Z,1028.8
2018-01-13T01:01:20.875Z,1028.8
2018-01-13T01:06:21.220Z,1028.8
2018-01-13T01:11:30.936Z,1028.8
2018-01-13T01:16:20.846Z,1028.8
2018-01-13T01:21:20.897Z,1028.9
2018-01-13T01:26:20.922Z,1029
2018-01-13T01:31:30.789Z,1029.1
2018-01-13T01:36:20.850Z,1029
2018-01-13T01:41:20.896Z,1029
2018-01-13T01:46:20.908Z,1028.9
2018-01-13T01:51:20.855Z,1029
2018-01-13T01:56:20.883Z,1029
2018-01-13T02:01:21.056Z,1028.9
2018-01-13T02:06:20.825Z,1028.9
2018-01-13T02:11:20.892Z,1028.9
2018-01-13T02:16:20.856Z,1028.9
2018-01-13T02:21:20.758Z,1028.9
2018-01-13T02:26:20.811Z,1028.8
2018-01-13T02:31:20.762Z,1028.8
2018-01-13T02:36:20.770Z,1028.8
2018-01-13T02:41:20.816Z,1028.8
2018-01-13T02:46:20.902Z,1028.8
2018-01-13T02:51:20.885Z,1028.8
2018-01-13T02:56:20.981Z,1028.8
2018-01-13T03:01:20.855Z,1028.7
2018-01-13T03:06:20.915Z,1028.7
2018-01-13T03:11:20.952Z,1028.7
2018-01-13T03:16:20.995Z,1028.6
2018-01-13T03:21:21.001Z,1028.6
2018-01-13T03:26:20.942Z,1028.5
2018-01-13T03:31:20.984Z,1028.6
2018-01-13T03:36:20.984Z,1028.6
2018-01-13T03:41:20.926Z,1028.6
2018-01-13T03:46:20.944Z,1028.6
2018-01-13T03:51:21.082Z,1028.5
2018-01-13T03:56:21.005Z,1028.5
2018-01-13T04:01:20.883Z,1028.6
2018-01-13T04:06:20.929Z,1028.6
2018-01-13T04:11:20.970Z,1028.6
2018-01-13T04:16:20.891Z,1028.6
2018-01-13T04:21:20.904Z,1028.6
2018-01-13T04:26:20.974Z,1028.6
2018-01-13T04:31:20.856Z,1028.5
2018-01-13T04:36:30.891Z,1028.6
2018-01-13T04:41:20.839Z,1028.6
2018-01-13T04:46:20.882Z,1028.7
2018-01-13T04:51:21.015Z,1028.6
2018-01-13T04:56:20.945Z,1028.7
2018-01-13T05:01:20.914Z,1028.8
2018-01-13T05:06:20.999Z,1028.8
2018-01-13T05:11:20.857Z,1028.8
2018-01-13T05:16:21.063Z,1028.8
2018-01-13T05:21:20.991Z,1028.8
2018-01-13T05:26:21.008Z,1028.8
2018-01-13T05:31:21.046Z,1028.7
2018-01-13T05:36:20.874Z,1028.8
2018-01-13T05:41:21.020Z,1028.9
2018-01-13T05:46:21.089Z,1028.9
2018-01-13T05:51:20.937Z,1029
2018-01-13T05:56:21.018Z,1029
2018-01-13T06:01:20.996Z,1028.9
2018-01-13T06:06:21.180Z,1029
2018-01-13T06:11:21.004Z,1029
2018-01-13T06:16:20.991Z,1029.1
2018-01-13T06:21:20.933Z,1029.1
2018-01-13T06:26:20.938Z,1029
2018-01-13T06:31:20.976Z,1029.1
2018-01-13T06:36:20.885Z,1029.1
2018-01-13T06:41:21.052Z,1029.1
2018-01-13T06:46:20.884Z,1029
2018-01-13T06:51:21.044Z,1029
2018-01-13T06:56:20.925Z,1028.9
2018-01-13T07:01:20.884Z,1028.9
2018-01-13T07:06:20.990Z,1028.9
2018-01-13T07:11:21.017Z,1028.9
2018-01-13T07:16:20.904Z,1029
2018-01-13T07:21:20.991Z,1028.9
2018-01-13T07:26:21.142Z,1029
2018-01-13T07:31:21.179Z,1029
2018-01-13T07:36:21.119Z,1029
2018-01-13T07:41:24.158Z,1029.1
2018-01-13T07:46:21.494Z,1029.2
2018-01-13T07:51:21.222Z,1029.2
2018-01-13T07:56:20.979Z,1029.2
2018-01-13T08:01:21.024Z,1029.2
2018-01-13T08:06:21.008Z,1029.3
2018-01-13T08:11:20.971Z,1029.3
2018-01-13T08:16:20.942Z,1029.3
2018-01-13T08:21:21.117Z,1029.3
2018-01-13T08:26:21.199Z,1029.3
2018-01-13T08:31:20.944Z,1029.4
2018-01-13T08:36:21.037Z,1029.3
2018-01-13T08:41:21.105Z,1029.4
2018-01-13T08:46:21.101Z,1029.4
2018-01-13T08:51:20.971Z,1029.3
2018-01-13T08:56:21.219Z,1029.3
2018-01-13T09:01:21.015Z,1029.2
2018-01-13T09:06:21.120Z,1029.1
2018-01-13T09:11:21.125Z,1029.1
2018-01-13T09:16:21.042Z,1029.2
2018-01-13T09:21:21.806Z,1029.2
2018-01-13T09:26:21.208Z,1029.5
2018-01-13T09:31:21.044Z,1029.3
2018-01-13T09:36:22.888Z,1029.5
2018-01-13T09:41:21.037Z,1029.3
2018-01-13T09:46:21.431Z,1029.2
2018-01-13T09:51:21.078Z,1029.2
2018-01-13T09:56:21.030Z,1028.9
2018-01-13T10:01:20.991Z,1029.2
2018-01-13T10:06:21.226Z,1029
2018-01-13T10:11:21.051Z,1029.1
2018-01-13T10:16:23.077Z,1029.1
2018-01-13T10:21:21.039Z,1029
2018-01-13T10:26:21.074Z,1029
2018-01-13T10:31:21.037Z,1028.8
2018-01-13T10:36:21.080Z,1028.7
2018-01-13T10:41:21.131Z,1028.7
2018-01-13T10:46:21.088Z,1028.7
2018-01-13T10:51:21.019Z,1028.6
2018-01-13T10:56:21.030Z,1028.6
2018-01-13T11:01:21.109Z,1028.6
2018-01-13T11:06:21.069Z,1028.6
2018-01-13T11:11:21.077Z,1028.7
2018-01-13T11:20:50.162Z,1028.7
2018-01-13T11:24:15.690Z,1028.7
2018-01-13T11:34:00.114Z,1028.6
2018-01-13T11:39:00.051Z,1028.6
2018-01-13T11:44:00.031Z,1028.5
2018-01-13T11:49:00.102Z,1028.5
2018-01-13T11:54:00.095Z,1028.5
2018-01-13T11:59:00.047Z,1028.5
2018-01-13T12:04:00.072Z,1028.5
2018-01-13T12:09:00.070Z,1028.4
2018-01-13T12:14:00.058Z,1028.3
2018-01-13T12:19:00.073Z,1028.2
2018-01-13T12:24:00.051Z,1028.3
2018-01-13T12:29:00.089Z,1028.1
2018-01-13T12:34:00.064Z,1028.1
2018-01-13T12:39:00.047Z,1028
2018-01-13T12:44:00.117Z,1028
2018-01-13T12:49:00.063Z,1028
2018-01-13T12:54:00.071Z,1028
2018-01-13T12:59:00.181Z,1028
2018-01-13T13:04:00.142Z,1027.9
2018-01-13T13:09:00.148Z,1028
2018-01-13T13:14:00.201Z,1027.9
2018-01-13T13:19:00.871Z,1027.9
2018-01-13T13:24:06.761Z,1027.9
2018-01-13T13:29:00.078Z,1027.9
2018-01-13T13:34:00.172Z,1027.8
2018-01-13T13:39:00.145Z,1027.8
2018-01-13T13:44:00.145Z,1027.8
2018-01-13T13:49:00.133Z,1027.8
2018-01-13T13:54:00.104Z,1027.8
2018-01-13T13:59:00.147Z,1027.8
2018-01-13T14:04:00.136Z,1027.8
2018-01-13T14:09:00.128Z,1027.8
2018-01-13T14:14:00.124Z,1027.8
2018-01-13T14:19:00.209Z,1028
2018-01-13T14:24:00.157Z,1028
2018-01-13T14:29:00.153Z,1028
2018-01-13T14:34:00.242Z,1027.9
2018-01-13T14:39:05.600Z,1027.9
2018-01-13T14:44:00.150Z,1027.9
2018-01-13T14:49:00.211Z,1027.8
2018-01-13T14:54:00.259Z,1027.8
2018-01-13T14:59:00.344Z,1027.8
2018-01-13T15:04:00.188Z,1027.9
2018-01-13T15:09:00.203Z,1027.8
2018-01-13T15:14:00.239Z,1027.8
2018-01-13T15:19:00.258Z,1027.8
2018-01-13T15:24:00.199Z,1027.8
2018-01-13T15:29:00.337Z,1027.8
2018-01-13T15:34:00.521Z,1027.8
2018-01-13T15:39:00.332Z,1027.8
2018-01-13T15:44:01.666Z,1027.8
2018-01-13T15:49:00.314Z,1027.9
2018-01-13T15:54:00.180Z,1027.9
2018-01-13T15:59:00.368Z,1027.9
2018-01-13T16:04:00.208Z,1027.9
2018-01-13T16:09:00.281Z,1027.9
2018-01-13T16:14:02.205Z,1027.8
2018-01-13T16:19:01.054Z,1027.8
2018-01-13T16:24:00.230Z,1027.8
2018-01-13T16:29:00.301Z,1027.9
2018-01-13T16:34:00.492Z,1027.9
2018-01-13T16:39:00.226Z,1027.8
2018-01-13T16:44:01.325Z,1027.9
2018-01-13T16:49:00.396Z,1027.9
2018-01-13T16:54:00.342Z,1027.9
2018-01-13T16:59:00.328Z,1027.8
2018-01-13T17:04:00.402Z,1027.9
2018-01-13T17:09:00.309Z,1027.9
2018-01-13T17:14:00.272Z,1027.7
2018-01-13T17:19:00.468Z,1027.9
2018-01-13T17:24:00.253Z,1027.9
2018-01-13T17:29:00.280Z,1027.9
2018-01-13T17:34:00.300Z,1027.9
2018-01-13T17:39:00.570Z,1027.8
2018-01-13T17:44:00.452Z,1027.7
2018-01-13T17:49:00.281Z,1027.7
2018-01-13T17:54:00.692Z,1027.7
2018-01-13T17:59:00.860Z,1027.7
2018-01-13T18:04:00.300Z,1027.7
2018-01-13T18:09:00.280Z,1027.7
2018-01-13T18:14:00.314Z,1027.6
2018-01-13T18:19:00.352Z,1027.5
2018-01-13T18:24:00.397Z,1027.6
2018-01-13T18:29:00.535Z,1027.6
2018-01-13T18:34:00.301Z,1027.6
2018-01-13T18:39:00.359Z,1027.5
2018-01-13T18:44:00.377Z,1027.5
2018-01-13T18:49:00.408Z,1027.5
2018-01-13T18:54:00.447Z,1027.3
2018-01-13T18:59:00.412Z,1027.3
2018-01-13T19:04:00.430Z,1027.3
2018-01-13T19:09:01.364Z,1027.5
2018-01-13T19:14:00.610Z,1027.3
2018-01-13T19:19:00.766Z,1027.3
2018-01-13T19:24:00.274Z,1027.2
2018-01-13T19:29:03.887Z,1027.1
2018-01-13T19:34:00.325Z,1027.1
2018-01-13T19:39:00.346Z,1027.1
2018-01-13T19:44:02.218Z,1027.1
2018-01-13T19:49:01.510Z,1027.2
2018-01-13T19:54:01.526Z,1027.1
2018-01-13T19:59:01.524Z,1027.1
2018-01-13T20:04:01.147Z,1027.1
2018-01-13T20:09:00.601Z,1027.1
2018-01-13T20:14:00.500Z,1027.1
2018-01-13T20:19:00.548Z,1027
2018-01-13T20:24:00.848Z,1026.9
2018-01-13T20:29:01.193Z,1026.9
2018-01-13T20:34:01.585Z,1026.8
2018-01-13T20:39:00.844Z,1026.6
2018-01-13T20:44:01.190Z,1026.5
2018-01-13T20:49:01.979Z,1026.5
2018-01-13T20:54:01.369Z,1026.4
2018-01-13T20:59:01.728Z,1026.4
2018-01-13T21:04:00.562Z,1026.5
2018-01-13T21:09:00.665Z,1026.4
2018-01-13T21:14:00.522Z,1026.4
2018-01-13T21:19:00.666Z,1026.5
2018-01-13T21:24:00.517Z,1026.5
2018-01-13T21:29:01.044Z,1026.4
2018-01-13T21:34:00.658Z,1026.4
2018-01-13T21:39:00.513Z,1026.4
2018-01-13T21:44:00.478Z,1026.4
2018-01-13T21:49:00.688Z,1026.4
2018-01-13T21:54:00.416Z,1026.3
2018-01-13T21:59:00.502Z,1026.3
2018-01-13T22:04:00.484Z,1026.3
2018-01-13T22:09:00.464Z,1026.4
2018-01-13T22:14:00.567Z,1026.3
2018-01-13T22:19:01.048Z,1026.2
2018-01-13T22:24:00.590Z,1026.2
2018-01-13T22:29:00.449Z,1026.1
2018-01-13T22:34:00.428Z,1025.9
2018-01-13T22:39:00.653Z,1025.9
2018-01-13T22:44:00.418Z,1025.8
2018-01-13T22:49:00.444Z,1025.8
2018-01-13T22:54:00.627Z,1025.7
2018-01-13T22:59:00.519Z,1025.6
2018-01-13T23:04:00.479Z,1025.6
2018-01-13T23:09:00.490Z,1025.5
2018-01-13T23:14:10.520Z,1025.4
2018-01-13T23:19:00.451Z,1025.4
2018-01-13T23:24:00.611Z,1025.4
2018-01-13T23:29:00.434Z,1025.3
2018-01-13T23:34:00.543Z,1025.2
2018-01-13T23:39:00.438Z,1025.2
2018-01-13T23:44:00.593Z,1025.1
2018-01-13T23:49:00.457Z,1025.1
2018-01-13T23:54:00.435Z,1025.2
2018-01-13T23:59:00.444Z,1025.2
